Time;durP1;ratioP1;P1;durP2;ratioP2;P2;SDS_P1;SDS_P2;PMS_P1;PMS_P2;Temp;Humidity;BMP_temperature;BMP_pressure;BME280_temperature;BME280_humidity;BME280_pressure;Samples;Min_cycle;Max_cycle;Signal;HPM_P1;HPM_P2
2023/01/15 00:00:59;;;;;;;5.47;1.77;;;7.50;99.90;;;;;;5071003;28;20472;-67
2023/01/15 00:03:25;;;;;;;8.20;2.10;;;7.60;99.90;;;;;;5071110;28;20137;-67
2023/01/15 00:05:51;;;;;;;6.07;1.88;;;7.40;99.90;;;;;;5069896;28;20068;-67
2023/01/15 00:08:16;;;;;;;5.18;1.80;;;7.40;99.90;;;;;;5052740;28;20041;-67
2023/01/15 00:10:42;;;;;;;4.35;1.50;;;7.30;99.90;;;;;;5070801;28;20064;-67
2023/01/15 00:13:07;;;;;;;8.57;2.03;;;7.40;99.90;;;;;;5070903;28;20041;-67
2023/01/15 00:15:33;;;;;;;5.32;1.98;;;7.40;99.90;;;;;;5070254;28;20091;-67
2023/01/15 00:17:59;;;;;;;7.45;2.28;;;7.40;99.90;;;;;;5052652;28;20071;-67
2023/01/15 00:20:24;;;;;;;6.90;2.08;;;7.30;99.90;;;;;;5070768;28;20105;-67
2023/01/15 00:22:50;;;;;;;8.00;1.63;;;7.50;99.90;;;;;;5070574;28;20060;-67
2023/01/15 00:28:00;;;;;;;6.13;1.90;;;7.40;99.90;;;;;;5052539;28;20051;-67
2023/01/15 00:30:25;;;;;;;6.63;2.05;;;7.40;99.90;;;;;;5070804;28;20036;-67
2023/01/15 00:32:51;;;;;;;8.20;1.70;;;7.40;99.90;;;;;;5053472;28;20059;-67
2023/01/15 00:35:19;;;;;;;8.68;2.13;;;7.30;99.90;;;;;;5074019;28;20117;-67
2023/01/15 00:37:45;;;;;;;8.00;2.55;;;7.30;99.90;;;;;;5039905;28;20611;-67
2023/01/15 00:40:13;;;;;;;6.88;2.38;;;7.40;99.90;;;;;;5074620;28;20036;-67
2023/01/15 00:42:38;;;;;;;9.35;3.08;;;7.40;99.90;;;;;;5056523;28;20558;-67
2023/01/15 00:45:09;;;;;;;7.82;1.92;;;7.40;99.90;;;;;;5055858;28;20036;-67
2023/01/15 00:47:39;;;;;;;6.45;1.70;;;7.30;99.90;;;;;;5056619;28;20044;-66
2023/01/15 00:50:06;;;;;;;8.90;2.10;;;7.40;99.90;;;;;;5056265;28;20515;-67
2023/01/15 00:52:32;;;;;;;7.22;1.67;;;7.40;99.90;;;;;;5056546;28;20048;-67
2023/01/15 00:54:58;;;;;;;7.13;1.80;;;7.40;99.90;;;;;;5073554;28;20119;-67
2023/01/15 00:57:23;;;;;;;7.00;1.98;;;7.40;99.90;;;;;;5078531;28;20484;-67
2023/01/15 00:59:49;;;;;;;9.82;1.92;;;7.40;99.90;;;;;;5072851;28;20079;-67
2023/01/15 01:02:15;;;;;;;8.68;1.90;;;7.40;99.90;;;;;;5074176;28;20600;-67
2023/01/15 01:04:40;;;;;;;8.38;2.03;;;7.30;99.90;;;;;;5073040;28;20040;-67
2023/01/15 01:07:09;;;;;;;6.82;1.65;;;7.40;99.90;;;;;;5074321;28;20048;-67
2023/01/15 01:09:34;;;;;;;5.75;2.00;;;7.30;99.90;;;;;;5074134;28;20440;-67
2023/01/15 01:12:00;;;;;;;9.48;2.25;;;7.40;99.90;;;;;;5074060;28;20067;-67
2023/01/15 01:14:26;;;;;;;5.22;1.80;;;7.30;99.90;;;;;;5073062;28;20084;-67
2023/01/15 01:16:51;;;;;;;11.35;1.88;;;7.30;99.90;;;;;;5055883;28;20044;-68
2023/01/15 01:19:20;;;;;;;6.40;1.85;;;7.40;99.90;;;;;;5074108;28;20083;-67
2023/01/15 01:21:47;;;;;;;10.10;2.05;;;7.30;99.90;;;;;;5073876;28;20071;-68
2023/01/15 01:24:16;;;;;;;6.28;1.48;;;7.30;99.90;;;;;;5073347;28;20047;-67
2023/01/15 01:26:45;;;;;;;9.07;1.70;;;7.40;99.90;;;;;;5073738;28;20048;-68
2023/01/15 01:29:21;;;;;;;7.28;2.33;;;7.40;99.90;;;;;;5073652;28;20040;-67
2023/01/15 01:31:47;;;;;;;6.00;1.65;;;7.30;99.90;;;;;;5073645;28;20128;-68
2023/01/15 01:34:13;;;;;;;11.63;1.88;;;7.30;99.90;;;;;;5072964;28;20060;-68
2023/01/15 01:36:41;;;;;;;2.88;1.67;;;7.30;99.90;;;;;;5073587;28;20060;-68
2023/01/15 01:39:10;;;;;;;5.70;1.70;;;7.30;99.90;;;;;;5073662;28;20051;-68
2023/01/15 01:41:36;;;;;;;8.90;2.35;;;7.30;99.90;;;;;;5073343;28;20033;-68
2023/01/15 01:44:04;;;;;;;11.38;2.13;;;7.30;99.90;;;;;;5072637;28;20634;-68
2023/01/15 01:46:32;;;;;;;8.38;1.90;;;7.30;99.90;;;;;;5072594;28;20115;-68
2023/01/15 01:49:07;;;;;;;9.07;2.38;;;7.30;99.90;;;;;;5038661;28;20040;-68
2023/01/15 01:51:38;;;;;;;10.00;1.75;;;7.20;99.90;;;;;;5055479;28;20185;-68
2023/01/15 01:54:05;;;;;;;6.25;1.80;;;7.20;99.90;;;;;;5072589;28;21019;-68
2023/01/15 01:56:34;;;;;;;8.50;1.77;;;7.30;99.90;;;;;;5072976;28;20533;-68
2023/01/15 01:59:01;;;;;;;8.75;1.90;;;7.30;99.90;;;;;;5072996;28;20052;-68
2023/01/15 02:01:27;;;;;;;10.25;2.00;;;7.30;99.90;;;;;;5073034;28;20094;-68
2023/01/15 02:03:53;;;;;;;10.35;2.00;;;7.20;99.90;;;;;;5072438;28;20044;-69
2023/01/15 02:06:19;;;;;;;11.75;1.77;;;7.20;99.90;;;;;;5073055;28;20123;-68
2023/01/15 02:08:44;;;;;;;6.63;2.17;;;7.20;99.90;;;;;;5072979;28;20119;-68
2023/01/15 02:11:19;;;;;;;8.20;1.90;;;7.20;99.90;;;;;;5055011;28;20095;-68
2023/01/15 02:13:59;;;;;;;9.93;2.95;;;7.20;99.90;;;;;;5071988;28;20052;-68
2023/01/15 02:17:02;;;;;;;6.35;1.75;;;7.20;99.90;;;;;;5073131;28;20048;-68
2023/01/15 02:20:04;;;;;;;7.07;1.58;;;7.20;99.90;;;;;;4990842;28;20554;-68
2023/01/15 02:22:52;;;;;;;8.50;1.75;;;7.10;99.90;;;;;;4990718;28;20075;-68
2023/01/15 02:25:50;;;;;;;8.73;2.00;;;7.20;99.90;;;;;;4990148;28;20043;-68
2023/01/15 02:28:24;;;;;;;8.15;1.80;;;7.20;99.90;;;;;;4990727;28;20050;-68
2023/01/15 02:31:15;;;;;;;7.32;1.90;;;7.10;99.90;;;;;;4990739;28;20154;-68
2023/01/15 02:33:53;;;;;;;10.68;2.05;;;7.10;99.90;;;;;;4989880;28;20062;-68
2023/01/15 02:36:23;;;;;;;8.57;2.10;;;7.10;99.90;;;;;;4974368;28;20129;-68
2023/01/15 02:38:51;;;;;;;12.98;1.92;;;7.10;99.90;;;;;;4990657;28;20054;-68
2023/01/15 02:41:23;;;;;;;8.00;2.10;;;7.10;99.90;;;;;;4990616;28;20046;-68
2023/01/15 02:43:52;;;;;;;9.25;2.13;;;7.20;99.90;;;;;;4991728;28;20101;-68
2023/01/15 02:46:21;;;;;;;8.05;1.83;;;7.20;99.90;;;;;;5010110;28;20096;-68
2023/01/15 02:48:51;;;;;;;10.10;1.80;;;7.10;99.90;;;;;;5009746;28;20522;-68
2023/01/15 02:51:22;;;;;;;9.60;1.92;;;7.10;99.90;;;;;;5009997;28;20053;-68
2023/01/15 02:53:50;;;;;;;8.93;1.60;;;7.10;99.90;;;;;;5008992;28;20430;-68
2023/01/15 02:56:20;;;;;;;15.68;2.03;;;7.10;99.90;;;;;;5033796;28;20091;-68
2023/01/15 02:58:48;;;;;;;9.00;2.30;;;7.10;99.90;;;;;;5071963;28;20080;-68
2023/01/15 03:01:21;;;;;;;7.45;1.85;;;7.10;99.90;;;;;;5071857;28;20079;-69
2023/01/15 03:04:18;;;;;;;4.75;1.90;;;7.10;99.90;;;;;;5070990;28;20040;-67
2023/01/15 03:07:04;;;;;;;5.03;1.48;;;7.10;99.90;;;;;;5071979;28;20111;-68
2023/01/15 03:09:30;;;;;;;7.00;1.88;;;7.10;99.90;;;;;;5071564;28;20052;-68
2023/01/15 03:12:09;;;;;;;6.53;2.25;;;7.10;99.90;;;;;;5053447;28;20090;-68
2023/01/15 03:15:05;;;;;;;8.57;1.83;;;7.10;99.90;;;;;;5070901;28;20040;-68
2023/01/15 03:17:37;;;;;;;6.55;1.77;;;7.10;99.90;;;;;;5057062;28;20135;-68
2023/01/15 03:20:13;;;;;;;7.13;2.63;;;7.00;99.90;;;;;;5071511;28;20086;-68
2023/01/15 03:22:44;;;;;;;3.92;1.48;;;7.00;99.90;;;;;;5071834;28;20048;-68
2023/01/15 03:25:22;;;;;;;10.00;2.17;;;7.00;99.90;;;;;;5070827;28;20071;-68
2023/01/15 03:27:49;;;;;;;5.60;1.77;;;7.00;99.90;;;;;;5071432;28;20041;-68
2023/01/15 03:30:18;;;;;;;10.52;1.83;;;7.00;99.90;;;;;;5071317;28;20076;-68
2023/01/15 03:32:43;;;;;;;3.75;1.83;;;7.00;99.90;;;;;;5071172;28;20511;-68
2023/01/15 03:35:42;;;;;;;6.88;2.20;;;7.00;99.90;;;;;;5070566;28;20036;-68
2023/01/15 03:38:09;;;;;;;9.27;1.90;;;7.00;99.90;;;;;;5071390;28;20512;-68
2023/01/15 03:40:39;;;;;;;13.05;1.75;;;7.00;99.90;;;;;;5071025;28;20087;-68
2023/01/15 03:46:01;;;;;;;8.55;2.10;;;6.90;99.90;;;;;;5070446;28;20044;-68
2023/01/15 03:48:38;;;;;;;14.23;2.28;;;6.90;99.90;;;;;;5071445;28;20075;-68
2023/01/15 03:51:26;;;;;;;9.82;2.35;;;6.90;99.90;;;;;;5071126;28;20123;-68
2023/01/15 03:53:56;;;;;;;12.70;1.63;;;7.00;99.90;;;;;;5070409;28;20044;-67
2023/01/15 03:56:43;;;;;;;7.32;2.00;;;6.90;99.90;;;;;;5071054;28;20412;-68
2023/01/15 03:59:20;;;;;;;6.55;1.73;;;7.00;99.90;;;;;;5070965;28;20044;-68
2023/01/15 04:01:49;;;;;;;8.80;2.00;;;6.90;99.90;;;;;;5070872;28;20040;-68
2023/01/15 04:04:15;;;;;;;10.20;1.90;;;6.80;99.90;;;;;;5070267;28;20047;-68
2023/01/15 04:06:42;;;;;;;8.55;1.80;;;6.80;99.90;;;;;;5071021;28;20041;-68
2023/01/15 04:09:11;;;;;;;11.55;2.38;;;6.80;99.90;;;;;;5070576;28;20079;-68
2023/01/15 04:11:37;;;;;;;9.90;2.22;;;6.80;99.90;;;;;;5070782;28;20055;-68
2023/01/15 04:14:02;;;;;;;10.35;1.60;;;6.90;99.90;;;;;;5070235;28;20032;-68
2023/01/15 04:16:31;;;;;;;10.30;1.60;;;6.80;99.90;;;;;;5070530;28;20102;-68
2023/01/15 04:18:57;;;;;;;7.43;1.90;;;6.80;99.90;;;;;;5070988;28;20067;-68
2023/01/15 04:21:23;;;;;;;12.98;1.83;;;6.80;99.90;;;;;;5070825;28;20049;-68
2023/01/15 04:23:48;;;;;;;9.57;2.15;;;6.80;99.90;;;;;;5069907;28;20497;-68
2023/01/15 04:26:15;;;;;;;4.68;1.25;;;6.80;99.90;;;;;;5070868;28;20072;-68
2023/01/15 04:28:40;;;;;;;6.47;1.63;;;6.80;99.90;;;;;;5070735;28;20044;-68
2023/01/15 04:31:06;;;;;;;10.13;1.77;;;6.80;99.90;;;;;;5070485;28;20124;-68
2023/01/15 04:33:32;;;;;;;7.05;2.20;;;6.80;99.90;;;;;;5070642;28;20044;-68
2023/01/15 04:35:59;;;;;;;16.88;2.15;;;6.80;99.90;;;;;;5070122;28;20488;-68
2023/01/15 04:38:24;;;;;;;9.48;2.65;;;6.80;99.90;;;;;;5070591;28;20400;-68
2023/01/15 04:46:23;;;;;;;12.65;1.90;;;6.80;99.90;;;;;;5070655;28;20041;-68
2023/01/15 04:56:07;;;;;;;9.30;2.17;;;6.80;99.90;;;;;;5108427;27;20309;-66
2023/01/15 04:58:33;;;;;;;7.60;2.28;;;6.80;99.90;;;;;;5108804;28;20048;-67
2023/01/15 05:00:59;;;;;;;7.10;2.22;;;6.80;99.90;;;;;;5109007;28;20380;-67
2023/01/15 05:03:30;;;;;;;8.15;2.38;;;6.80;99.90;;;;;;5107304;28;20038;-67
2023/01/15 05:06:00;;;;;;;9.45;2.22;;;6.80;99.90;;;;;;5107678;28;20040;-67
2023/01/15 05:08:26;;;;;;;13.88;2.42;;;6.70;99.90;;;;;;5107196;28;20075;-67
2023/01/15 05:10:52;;;;;;;7.03;2.40;;;6.70;99.90;;;;;;5108824;28;20075;-67
2023/01/15 05:13:18;;;;;;;5.22;2.25;;;6.70;99.90;;;;;;5107037;28;20043;-67
2023/01/15 05:15:45;;;;;;;5.32;2.15;;;6.70;99.90;;;;;;5107630;28;20043;-67
2023/01/15 05:18:13;;;;;;;7.30;2.53;;;6.70;99.90;;;;;;5108595;28;20071;-67
2023/01/15 05:20:40;;;;;;;8.32;1.98;;;6.70;99.90;;;;;;5107212;28;20063;-67
2023/01/15 05:23:06;;;;;;;7.22;1.80;;;6.70;99.90;;;;;;5108422;28;20043;-67
2023/01/15 05:25:32;;;;;;;9.40;2.05;;;6.70;99.90;;;;;;5107729;28;20400;-67
2023/01/15 05:27:58;;;;;;;15.27;2.40;;;6.70;99.90;;;;;;5106682;28;20039;-67
2023/01/15 05:30:23;;;;;;;4.95;2.45;;;6.70;99.90;;;;;;5106755;28;20488;-67
2023/01/15 05:32:49;;;;;;;9.18;2.20;;;6.70;99.90;;;;;;5108135;28;20044;-67
2023/01/15 05:35:14;;;;;;;4.55;1.88;;;6.70;99.90;;;;;;5107061;28;20057;-67
2023/01/15 05:37:40;;;;;;;12.57;2.30;;;6.70;99.90;;;;;;5107993;28;20411;-67
2023/01/15 05:40:06;;;;;;;9.15;2.13;;;6.60;99.90;;;;;;5108142;28;20123;-67
2023/01/15 05:42:32;;;;;;;11.35;2.42;;;6.70;99.90;;;;;;5107817;28;20032;-67
2023/01/15 05:44:57;;;;;;;7.05;2.10;;;6.60;99.90;;;;;;5107149;28;20173;-67
2023/01/15 05:47:26;;;;;;;15.25;2.30;;;6.60;99.90;;;;;;5107880;28;20047;-67
2023/01/15 05:49:51;;;;;;;7.15;2.33;;;6.60;99.90;;;;;;5107903;28;20040;-67
2023/01/15 05:52:17;;;;;;;7.85;2.30;;;6.60;99.90;;;;;;5107949;28;20404;-67
2023/01/15 05:54:42;;;;;;;10.07;1.92;;;6.60;99.90;;;;;;5105219;28;20044;-67
2023/01/15 05:57:11;;;;;;;4.53;1.95;;;6.60;99.90;;;;;;5107710;28;20450;-67
2023/01/15 05:59:38;;;;;;;8.63;2.17;;;6.60;99.90;;;;;;5107578;28;20040;-67
2023/01/15 06:02:04;;;;;;;9.10;2.00;;;6.60;99.90;;;;;;5107664;28;20072;-67
2023/01/15 06:04:29;;;;;;;8.10;1.92;;;6.50;99.90;;;;;;5106604;28;20039;-67
2023/01/15 06:06:56;;;;;;;6.78;1.83;;;6.50;99.90;;;;;;5097032;28;20102;-67
2023/01/15 06:09:23;;;;;;;5.53;1.75;;;6.60;99.90;;;;;;5094181;28;20035;-67
2023/01/15 06:11:49;;;;;;;5.93;1.52;;;6.60;99.90;;;;;;5093639;28;20279;-67
2023/01/15 06:14:15;;;;;;;5.72;1.88;;;6.50;99.90;;;;;;5093011;28;20068;-67
2023/01/15 06:16:40;;;;;;;7.18;1.73;;;6.50;99.90;;;;;;5093826;28;20101;-67
2023/01/15 06:19:08;;;;;;;15.40;2.53;;;6.50;99.90;;;;;;5093967;28;20040;-67
2023/01/15 06:21:34;;;;;;;12.75;2.40;;;6.40;99.90;;;;;;5093763;28;20043;-67
2023/01/15 06:24:00;;;;;;;9.07;2.35;;;6.40;99.90;;;;;;5092742;28;20072;-66
2023/01/15 06:26:26;;;;;;;10.55;2.38;;;6.40;99.90;;;;;;5093622;28;20064;-67
2023/01/15 06:28:52;;;;;;;7.72;2.05;;;6.40;99.90;;;;;;5093717;28;20064;-67
2023/01/15 06:31:20;;;;;;;10.73;2.05;;;6.30;99.90;;;;;;5093612;28;20070;-67
2023/01/15 06:33:46;;;;;;;5.65;1.92;;;6.30;99.90;;;;;;5092692;28;20488;-67
2023/01/15 06:36:15;;;;;;;11.25;2.40;;;6.30;99.90;;;;;;5093499;28;20086;-67
2023/01/15 06:38:42;;;;;;;6.68;1.63;;;6.30;99.90;;;;;;5093496;28;20466;-67
2023/01/15 06:49:31;;;;;;;3.45;2.00;;;6.30;99.90;;;;;;5093420;28;20036;-67
2023/01/15 06:51:56;;;;;;;5.60;1.80;;;6.20;99.90;;;;;;5093117;28;20043;-67
